logo
Search for airport 
image banner adimage banner adimage banner ad
image banner ad

OLRA - Rayak Airbase

Located in Houch Hala, Lebanon

ICAO - OLRA, IATA -

Data provided by Airmate  

General information

Coordinates: N33°51'6" E35°59'35"
Elevation is 2952 feet MSL.
Magnetic variation is 5° East
View others Airports in Beqaa Governorate

Operational data

Special qualification required
Current time UTC:
Current local time:
METAR: OLBA 172000Z 32005KT 8000 FEW026 26/20 Q1011 NOSIG
TAF: TAF OLBA 171600Z 1718/1824 VRB02KT 8000 FEW026 TEMPO 1721/1806 5000 BR BECMG 1809/1812 29006KT 8000 BECMG 1815/1818 01005KT BECMG 1821/1824 VRB02KT
View NOTAMs / SUP AIP / TFR affecting this airport [VIEW]
Communications frequencies: [VIEW]

Runways:

RWY identifierQFULength (ft)Width (ft)SurfaceLDA (ft)
0443°9507148CON
22223°9507148CON

Airport contact information

Address: Houch Hala Lebanon

Satellite view of OLRA